createdAt,value
2022-09-11T00:01:23.198Z,22.17
2022-09-11T00:03:50.303Z,22.65
2022-09-11T00:06:28.776Z,22.92
2022-09-11T00:09:00.526Z,21.38
2022-09-11T00:11:29.956Z,23.55
2022-09-11T00:13:57.192Z,23.13
2022-09-11T00:16:28.701Z,20.73
2022-09-11T00:18:59.632Z,21.48
2022-09-11T00:21:27.768Z,21.40
2022-09-11T00:23:54.607Z,21.83
2022-09-11T00:26:22.533Z,25.40
2022-09-11T00:28:50.724Z,24.65
2022-09-11T00:31:19.966Z,23.65
2022-09-11T00:33:46.711Z,24.70
2022-09-11T00:36:18.967Z,24.73
2022-09-11T00:38:46.335Z,25.03
2022-09-11T00:41:25.969Z,25.20
2022-09-11T00:44:07.199Z,22.80
2022-09-11T00:46:50.047Z,23.88
2022-09-11T00:49:32.561Z,23.65
2022-09-11T00:52:12.586Z,26.57
2022-09-11T00:54:51.862Z,27.02
2022-09-11T00:57:23.993Z,26.30
2022-09-11T00:59:54.676Z,27.20
2022-09-11T01:02:27.253Z,27.13
2022-09-11T01:04:56.014Z,28.13
2022-09-11T01:07:25.375Z,29.85
2022-09-11T01:09:52.743Z,31.10
2022-09-11T01:13:10.668Z,30.52
2022-09-11T01:15:42.996Z,27.45
2022-09-11T01:18:38.590Z,27.60
2022-09-11T01:21:11.517Z,28.77
2022-09-11T01:24:04.336Z,29.40
2022-09-11T01:27:01.877Z,29.15
2022-09-11T01:29:39.794Z,29.60
2022-09-11T01:32:16.139Z,28.50
2022-09-11T01:35:05.715Z,26.77
2022-09-11T01:37:35.539Z,28.15
2022-09-11T01:40:10.912Z,28.80
2022-09-11T01:42:43.072Z,28.48
2022-09-11T01:45:17.168Z,29.17
2022-09-11T01:47:46.076Z,30.50
2022-09-11T01:50:15.344Z,32.67
2022-09-11T01:52:54.111Z,30.45
2022-09-11T01:55:26.102Z,26.65
2022-09-11T01:58:00.377Z,25.97
2022-09-11T02:00:29.424Z,28.88
2022-09-11T02:03:03.859Z,29.35
2022-09-11T02:05:37.557Z,31.52
2022-09-11T02:08:12.700Z,32.13
2022-09-11T02:10:46.583Z,27.63
2022-09-11T02:13:35.829Z,27.83
2022-09-11T02:16:21.742Z,29.38
2022-09-11T02:19:01.203Z,30.77
2022-09-11T02:21:28.533Z,32.70
2022-09-11T02:23:55.781Z,31.10
2022-09-11T02:26:25.689Z,32.58
2022-09-11T02:28:53.499Z,32.50
2022-09-11T02:31:21.447Z,32.80
2022-09-11T02:33:49.199Z,33.53
2022-09-11T02:36:45.167Z,32.03
2022-09-11T02:39:43.141Z,33.58
2022-09-11T02:42:19.278Z,31.27
2022-09-11T02:45:05.905Z,31.90
2022-09-11T02:48:11.965Z,33.10
2022-09-11T02:51:04.661Z,32.07
2022-09-11T02:53:56.673Z,34.25
2022-09-11T02:56:42.483Z,34.25
2022-09-11T02:59:19.205Z,33.65
2022-09-11T03:01:55.327Z,36.90
2022-09-11T03:04:25.564Z,33.13
2022-09-11T03:06:54.430Z,37.10
2022-09-11T03:09:21.405Z,35.13
2022-09-11T03:11:51.987Z,35.53
2022-09-11T03:14:19.940Z,32.92
2022-09-11T03:16:46.937Z,35.57
2022-09-11T03:19:14.443Z,32.28
2022-09-11T03:21:42.873Z,34.33
2022-09-11T03:24:10.454Z,33.15
2022-09-11T03:26:38.069Z,35.38
2022-09-11T03:29:04.956Z,35.23
2022-09-11T03:31:33.747Z,33.60
2022-09-11T03:34:03.680Z,31.58
2022-09-11T03:36:30.398Z,31.27
2022-09-11T03:38:57.191Z,33.55
2022-09-11T03:41:26.115Z,35.53
2022-09-11T03:43:53.189Z,32.85
2022-09-11T03:46:20.184Z,35.47
2022-09-11T03:48:47.085Z,35.60
2022-09-11T03:51:14.864Z,34.55
2022-09-11T03:53:42.263Z,31.17
2022-09-11T03:56:10.964Z,30.83
2022-09-11T03:58:43.293Z,30.75
2022-09-11T04:01:15.853Z,33.80
2022-09-11T04:03:43.380Z,33.42
2022-09-11T04:06:16.708Z,31.13
2022-09-11T04:08:43.569Z,33.50
2022-09-11T04:11:11.784Z,30.67
2022-09-11T04:13:40.897Z,33.00
2022-09-11T04:16:15.499Z,29.20
2022-09-11T04:18:46.077Z,28.50
2022-09-11T04:21:17.530Z,29.90
2022-09-11T04:23:55.901Z,30.23
2022-09-11T04:26:26.235Z,29.75
2022-09-11T04:29:01.287Z,27.65
2022-09-11T04:31:28.862Z,30.83
2022-09-11T04:33:58.006Z,27.98
2022-09-11T04:36:30.110Z,28.52
2022-09-11T04:38:58.979Z,29.67
2022-09-11T04:41:26.609Z,29.73
2022-09-11T04:43:56.308Z,28.40
2022-09-11T04:46:24.824Z,28.95
2022-09-11T04:48:54.168Z,31.70
2022-09-11T04:51:29.048Z,28.98
2022-09-11T04:53:58.073Z,29.23
2022-09-11T04:56:32.594Z,27.20
2022-09-11T04:59:03.927Z,29.55
2022-09-11T05:01:33.624Z,25.58
2022-09-11T05:04:01.616Z,27.13
2022-09-11T05:06:30.401Z,29.85
2022-09-11T05:09:08.104Z,26.23
2022-09-11T05:11:36.674Z,28.33
2022-09-11T05:14:03.699Z,30.02
2022-09-11T05:16:34.613Z,31.45
2022-09-11T05:19:02.272Z,30.17
2022-09-11T05:21:30.471Z,29.83
2022-09-11T05:23:58.713Z,28.13
2022-09-11T05:26:37.341Z,24.15
2022-09-11T05:29:13.915Z,23.50
2022-09-11T05:32:01.579Z,22.77
2022-09-11T05:34:29.101Z,23.93
2022-09-11T05:37:02.210Z,24.77
2022-09-11T05:39:31.613Z,37.88
2022-09-11T05:42:00.890Z,45.85
2022-09-11T05:44:31.928Z,24.67
2022-09-11T05:47:00.788Z,25.47
2022-09-11T05:49:28.719Z,23.67
2022-09-11T05:51:59.383Z,23.27
2022-09-11T05:54:27.661Z,24.23
2022-09-11T05:56:54.646Z,24.90
2022-09-11T05:59:27.149Z,30.07
2022-09-11T06:01:54.272Z,22.65
2022-09-11T06:04:32.396Z,40.75
2022-09-11T06:06:59.988Z,33.40
2022-09-11T06:09:28.673Z,25.27
2022-09-11T06:11:55.430Z,162.03
2022-09-11T06:14:22.211Z,49.08
2022-09-11T06:16:50.823Z,89.78
2022-09-11T06:19:18.124Z,178.75
2022-09-11T06:21:46.153Z,42.30
2022-09-11T06:24:24.851Z,28.43
2022-09-11T06:26:51.725Z,100.90
2022-09-11T06:29:19.560Z,171.77
2022-09-11T06:31:51.290Z,153.32
2022-09-11T06:34:21.518Z,56.55
2022-09-11T06:36:51.918Z,117.50
2022-09-11T06:39:26.552Z,98.63
2022-09-11T06:41:53.949Z,54.38
2022-09-11T06:44:27.348Z,23.52
2022-09-11T06:46:55.013Z,87.28
2022-09-11T06:49:23.673Z,61.40
2022-09-11T06:52:13.337Z,80.60
2022-09-11T06:54:44.986Z,53.50
2022-09-11T06:57:14.909Z,45.42
2022-09-11T06:59:43.198Z,62.78
2022-09-11T07:02:12.379Z,79.30
2022-09-11T07:04:39.256Z,22.48
2022-09-11T07:07:07.050Z,35.72
2022-09-11T07:09:35.197Z,26.10
2022-09-11T07:12:02.249Z,28.98
2022-09-11T07:14:29.790Z,62.77
2022-09-11T07:17:16.506Z,23.60
2022-09-11T07:19:45.274Z,25.63
2022-09-11T07:22:11.982Z,22.70
2022-09-11T07:24:51.723Z,25.85
2022-09-11T07:27:19.655Z,19.40
2022-09-11T07:29:47.373Z,18.88
2022-09-11T07:32:14.587Z,20.80
2022-09-11T07:34:41.649Z,18.70
2022-09-11T07:37:10.692Z,23.83
2022-09-11T07:39:39.042Z,23.43
2022-09-11T07:42:19.101Z,22.67
2022-09-11T07:44:46.934Z,20.77
2022-09-11T07:47:15.250Z,20.77
2022-09-11T07:49:48.161Z,21.10
2022-09-11T07:52:16.903Z,20.33
2022-09-11T07:54:51.080Z,23.45
2022-09-11T07:57:19.500Z,20.90
2022-09-11T07:59:47.069Z,19.75
2022-09-11T08:02:14.219Z,19.85
2022-09-11T08:04:43.157Z,24.65
2022-09-11T08:07:10.662Z,20.83
2022-09-11T08:09:37.506Z,20.38
2022-09-11T08:12:05.810Z,20.45
2022-09-11T08:14:36.942Z,18.95
2022-09-11T08:17:09.674Z,24.60
2022-09-11T08:19:38.424Z,21.33
2022-09-11T08:22:05.681Z,17.80
2022-09-11T08:24:38.432Z,19.48
2022-09-11T08:27:06.910Z,20.40
2022-09-11T08:29:37.489Z,22.83
2022-09-11T08:32:06.181Z,17.88
2022-09-11T08:34:33.482Z,21.73
2022-09-11T08:37:00.322Z,19.50
2022-09-11T08:39:29.454Z,20.42
2022-09-11T08:42:14.109Z,15.53
2022-09-11T08:44:55.703Z,16.45
2022-09-11T08:47:37.176Z,15.55
2022-09-11T08:50:20.338Z,23.85
2022-09-11T08:52:48.893Z,18.75
2022-09-11T08:55:32.831Z,21.25
2022-09-11T08:58:18.688Z,19.23
2022-09-11T09:01:12.334Z,17.67
2022-09-11T09:04:31.370Z,15.80
2022-09-11T09:07:21.573Z,14.50
2022-09-11T09:10:14.403Z,18.85
2022-09-11T09:13:07.548Z,14.77
2022-09-11T09:15:50.199Z,15.23
2022-09-11T09:18:38.783Z,17.05
2022-09-11T09:21:31.854Z,15.45
2022-09-11T09:24:02.954Z,12.10
2022-09-11T09:26:41.121Z,14.48
2022-09-11T09:29:31.626Z,13.15
2022-09-11T09:32:05.661Z,12.85
2022-09-11T09:34:37.877Z,12.80
2022-09-11T09:37:15.247Z,14.10
2022-09-11T09:39:42.212Z,13.73
2022-09-11T09:42:28.149Z,10.85
2022-09-11T09:45:31.653Z,9.30
2022-09-11T09:47:58.732Z,9.65
2022-09-11T09:50:39.576Z,11.23
2022-09-11T09:53:15.798Z,8.38
2022-09-11T09:55:44.275Z,11.50
2022-09-11T09:58:11.023Z,10.18
2022-09-11T10:00:39.677Z,9.55
2022-09-11T10:03:23.912Z,8.38
2022-09-11T10:05:54.471Z,9.55
2022-09-11T10:08:33.404Z,11.95
2022-09-11T10:11:03.731Z,8.05
2022-09-11T10:13:38.401Z,11.20
2022-09-11T10:16:25.768Z,9.35
2022-09-11T10:18:54.287Z,10.48
2022-09-11T10:21:29.677Z,8.90
2022-09-11T10:24:22.945Z,7.50
2022-09-11T10:26:55.783Z,9.85
2022-09-11T10:29:27.474Z,8.38
2022-09-11T10:31:59.615Z,10.38
2022-09-11T10:34:34.032Z,10.95
2022-09-11T10:37:16.457Z,8.43
2022-09-11T10:39:46.958Z,10.07
2022-09-11T10:42:17.823Z,8.48
2022-09-11T10:44:47.811Z,9.82
2022-09-11T10:47:22.173Z,10.30
2022-09-11T10:49:49.539Z,8.50
2022-09-11T10:52:19.207Z,8.88
2022-09-11T10:55:07.504Z,10.55
2022-09-11T10:57:44.155Z,7.65
2022-09-11T11:00:22.089Z,9.80
2022-09-11T11:03:17.262Z,9.23
2022-09-11T11:06:01.898Z,9.70
2022-09-11T11:08:39.902Z,8.68
2022-09-11T11:11:24.224Z,6.40
2022-09-11T11:14:34.188Z,5.55
2022-09-11T11:17:24.958Z,8.50
2022-09-11T11:20:03.414Z,7.65
2022-09-11T11:22:50.257Z,8.05
2022-09-11T11:25:27.827Z,5.00
2022-09-11T11:28:00.927Z,5.60
2022-09-11T11:30:41.168Z,6.55
2022-09-11T11:33:21.399Z,5.15
2022-09-11T11:36:04.438Z,4.97
2022-09-11T11:38:47.353Z,5.30
2022-09-11T11:41:20.453Z,5.38
2022-09-11T11:43:49.961Z,4.88
2022-09-11T11:46:38.813Z,4.80
2022-09-11T11:49:21.066Z,5.15
2022-09-11T11:52:03.912Z,5.90
2022-09-11T11:54:39.890Z,5.13
2022-09-11T11:57:11.429Z,4.65
2022-09-11T12:00:03.175Z,6.53
2022-09-11T12:02:56.352Z,4.60
2022-09-11T12:05:30.856Z,4.40
2022-09-11T12:07:58.523Z,5.03
2022-09-11T12:10:39.412Z,4.80
2022-09-11T12:13:15.739Z,5.03
2022-09-11T12:16:09.339Z,5.95
2022-09-11T12:18:38.527Z,4.80
2022-09-11T12:21:23.691Z,3.65
2022-09-11T12:23:50.409Z,3.63
2022-09-11T12:26:25.026Z,7.57
2022-09-11T12:29:14.294Z,4.85
2022-09-11T12:31:50.207Z,4.70
2022-09-11T12:34:37.093Z,4.43
2022-09-11T12:37:09.202Z,3.30
2022-09-11T12:40:06.190Z,4.90
2022-09-11T12:42:32.965Z,8.23
2022-09-11T12:45:00.109Z,3.78
2022-09-11T12:47:28.297Z,2.95
2022-09-11T12:50:06.179Z,3.83
2022-09-11T12:52:46.392Z,4.43
2022-09-11T12:55:41.134Z,3.45
2022-09-11T12:58:22.314Z,4.68
2022-09-11T13:01:00.409Z,3.47
2022-09-11T13:03:29.044Z,5.25
2022-09-11T13:06:01.165Z,3.85
2022-09-11T13:08:32.200Z,4.40
2022-09-11T13:11:36.529Z,6.10
2022-09-11T13:14:25.392Z,3.53
2022-09-11T13:16:53.097Z,4.00
2022-09-11T13:19:20.865Z,4.22
2022-09-11T13:21:51.930Z,5.35
2022-09-11T13:24:25.689Z,2.67
2022-09-11T13:27:20.223Z,3.42
2022-09-11T13:29:48.632Z,3.45
2022-09-11T13:32:16.611Z,5.00
2022-09-11T13:34:46.788Z,2.00
2022-09-11T13:37:26.567Z,4.47
2022-09-11T13:39:53.643Z,2.38
2022-09-11T13:42:23.222Z,2.72
2022-09-11T13:44:56.407Z,4.65
2022-09-11T13:47:28.627Z,4.35
2022-09-11T13:50:05.910Z,5.13
2022-09-11T13:52:34.583Z,4.60
2022-09-11T13:55:10.418Z,5.90
2022-09-11T13:57:51.710Z,5.43
2022-09-11T14:00:50.498Z,3.80
2022-09-11T14:03:32.343Z,2.87
2022-09-11T14:06:09.183Z,2.00
2022-09-11T14:08:40.451Z,2.30
2022-09-11T14:11:21.404Z,2.92
2022-09-11T14:14:08.722Z,2.97
2022-09-11T14:16:38.929Z,4.00
2022-09-11T14:19:15.645Z,3.03
2022-09-11T14:21:49.047Z,3.33
2022-09-11T14:24:39.021Z,3.30
2022-09-11T14:27:31.035Z,2.85
2022-09-11T14:29:58.141Z,4.67
2022-09-11T14:32:37.996Z,2.45
2022-09-11T14:35:07.628Z,2.42
2022-09-11T14:37:42.017Z,3.45
2022-09-11T14:40:16.536Z,3.35
2022-09-11T14:42:48.560Z,3.80
2022-09-11T14:45:20.897Z,3.78
2022-09-11T14:47:48.668Z,3.65
2022-09-11T14:50:15.500Z,4.03
2022-09-11T14:52:42.617Z,4.80
2022-09-11T14:55:18.082Z,5.30
2022-09-11T14:57:48.861Z,2.63
2022-09-11T15:00:18.359Z,3.58
2022-09-11T15:02:51.080Z,3.92
2022-09-11T15:05:22.874Z,3.13
2022-09-11T15:07:50.727Z,3.80
2022-09-11T15:10:17.553Z,4.03
2022-09-11T15:12:44.716Z,4.72
2022-09-11T15:15:16.264Z,3.75
2022-09-11T15:17:43.175Z,2.80
2022-09-11T15:20:10.192Z,2.87
2022-09-11T15:22:38.240Z,2.95
2022-09-11T15:25:05.843Z,4.25
2022-09-11T15:27:32.660Z,3.15
2022-09-11T15:30:01.190Z,8.00
2022-09-11T15:32:28.384Z,4.97
2022-09-11T15:34:55.796Z,4.80
2022-09-11T15:37:24.392Z,2.72
2022-09-11T15:39:51.752Z,3.67
2022-09-11T15:42:18.937Z,3.47
2022-09-11T15:44:50.687Z,3.73
2022-09-11T15:47:18.059Z,4.00
2022-09-11T15:49:47.774Z,3.80
2022-09-11T15:52:15.081Z,3.92
2022-09-11T15:54:43.061Z,4.13
2022-09-11T15:57:10.086Z,3.90
2022-09-11T15:59:37.218Z,3.17
2022-09-11T16:02:04.841Z,3.63
2022-09-11T16:04:34.764Z,3.78
2022-09-11T16:07:10.509Z,5.05
2022-09-11T16:09:37.769Z,2.57
2022-09-11T16:12:07.359Z,5.28
2022-09-11T16:14:37.701Z,5.32
2022-09-11T16:17:06.600Z,6.50
2022-09-11T16:19:34.365Z,4.60
2022-09-11T16:22:02.890Z,3.10
2022-09-11T16:24:31.526Z,4.18
2022-09-11T16:26:58.317Z,4.03
2022-09-11T16:29:44.050Z,3.60
2022-09-11T16:32:27.831Z,3.05
2022-09-11T16:34:56.859Z,5.07
2022-09-11T16:37:23.700Z,3.10
2022-09-11T16:39:50.968Z,6.70
2022-09-11T16:42:21.100Z,4.13
2022-09-11T16:44:49.413Z,4.00
2022-09-11T16:47:16.721Z,5.10
2022-09-11T16:50:06.554Z,2.97
2022-09-11T16:52:31.101Z,3.17
2022-09-11T16:54:57.963Z,3.28
2022-09-11T16:57:27.249Z,4.45
2022-09-11T16:59:54.288Z,3.63
2022-09-11T17:02:21.092Z,5.68
2022-09-11T17:04:51.092Z,3.00
2022-09-11T17:07:18.544Z,3.88
2022-09-11T17:09:48.169Z,6.18
2022-09-11T17:12:17.720Z,5.03
2022-09-11T17:14:44.584Z,3.25
2022-09-11T17:17:11.620Z,6.70
2022-09-11T17:19:38.353Z,3.90
2022-09-11T17:22:05.229Z,5.72
2022-09-11T17:24:32.241Z,3.72
2022-09-11T17:26:59.043Z,4.72
2022-09-11T17:29:26.164Z,5.25
2022-09-11T17:32:23.838Z,4.40
2022-09-11T17:34:44.597Z,5.65
2022-09-11T17:37:11.394Z,3.67
2022-09-11T17:39:38.419Z,4.85
2022-09-11T17:42:09.817Z,5.78
2022-09-11T17:44:41.313Z,4.05
2022-09-11T17:47:11.242Z,6.05
2022-09-11T17:49:38.261Z,5.90
2022-09-11T17:52:05.275Z,5.22
2022-09-11T17:54:32.016Z,5.85
2022-09-11T17:56:59.260Z,9.18
2022-09-11T17:59:26.715Z,7.95
2022-09-11T18:01:53.758Z,4.85
2022-09-11T18:04:22.311Z,3.42
2022-09-11T18:06:50.443Z,4.43
2022-09-11T18:09:19.893Z,5.40
2022-09-11T18:11:50.001Z,4.35
2022-09-11T18:14:19.582Z,4.97
2022-09-11T18:16:48.347Z,3.72
2022-09-11T18:19:17.966Z,4.50
2022-09-11T18:21:49.853Z,4.93
2022-09-11T18:24:20.094Z,3.80
2022-09-11T18:26:49.966Z,3.15
2022-09-11T18:29:20.068Z,8.15
2022-09-11T18:31:51.749Z,3.83
2022-09-11T18:34:27.775Z,4.60
2022-09-11T18:36:55.131Z,3.35
2022-09-11T18:39:22.493Z,8.15
2022-09-11T18:41:52.640Z,5.10
2022-09-11T18:44:22.363Z,4.53
2022-09-11T18:46:52.634Z,5.53
2022-09-11T18:49:19.834Z,5.57
2022-09-11T18:51:47.488Z,4.55
2022-09-11T18:54:16.019Z,7.35
2022-09-11T18:56:43.783Z,3.72
2022-09-11T18:59:12.585Z,3.80
2022-09-11T19:01:40.046Z,4.00
2022-09-11T19:04:10.139Z,4.97
2022-09-11T19:06:41.472Z,6.53
2022-09-11T19:09:13.261Z,4.50
2022-09-11T19:11:43.859Z,6.65
2022-09-11T19:14:12.955Z,5.18
2022-09-11T19:16:40.265Z,7.25
2022-09-11T19:19:08.534Z,5.40
2022-09-11T19:21:36.323Z,5.80
2022-09-11T19:24:03.270Z,5.43
2022-09-11T19:26:32.773Z,6.65
2022-09-11T19:29:00.526Z,5.60
2022-09-11T19:31:29.670Z,5.40
2022-09-11T19:34:00.335Z,7.25
2022-09-11T19:36:29.037Z,8.25
2022-09-11T19:38:56.114Z,7.75
2022-09-11T19:41:26.006Z,6.88
2022-09-11T19:43:54.143Z,8.18
2022-09-11T19:46:27.426Z,8.93
2022-09-11T19:48:57.544Z,7.97
2022-09-11T19:51:27.436Z,9.75
2022-09-11T19:53:56.232Z,8.43
2022-09-11T19:56:24.807Z,8.85
2022-09-11T19:58:52.398Z,8.82
2022-09-11T20:01:21.550Z,8.98
2022-09-11T20:03:50.987Z,9.40
2022-09-11T20:06:19.432Z,8.80
2022-09-11T20:08:49.714Z,11.23
2022-09-11T20:11:19.906Z,10.05
2022-09-11T20:13:47.468Z,13.27
2022-09-11T20:16:17.534Z,11.07
2022-09-11T20:18:44.786Z,10.35
2022-09-11T20:21:15.959Z,10.52
2022-09-11T20:23:44.414Z,10.10
2022-09-11T20:26:16.823Z,10.70
2022-09-11T20:28:48.165Z,12.05
2022-09-11T20:31:17.137Z,10.60
2022-09-11T20:33:45.249Z,11.73
2022-09-11T20:36:13.694Z,13.73
2022-09-11T20:38:40.668Z,10.18
2022-09-11T20:41:12.825Z,10.80
2022-09-11T20:43:40.095Z,14.48
2022-09-11T20:46:07.364Z,11.45
2022-09-11T20:48:34.754Z,12.57
2022-09-11T20:51:06.664Z,11.43
2022-09-11T20:53:33.677Z,12.55
2022-09-11T20:56:09.450Z,13.30
2022-09-11T20:58:37.674Z,11.63
2022-09-11T21:01:05.865Z,13.20
2022-09-11T21:03:33.581Z,13.60
2022-09-11T21:06:09.276Z,13.73
2022-09-11T21:08:36.481Z,12.63
2022-09-11T21:11:04.902Z,13.23
2022-09-11T21:13:35.131Z,11.95
2022-09-11T21:16:06.081Z,14.00
2022-09-11T21:18:33.424Z,13.55
2022-09-11T21:21:00.211Z,13.38
2022-09-11T21:23:27.195Z,13.20
2022-09-11T21:25:54.464Z,14.73
2022-09-11T21:28:21.867Z,14.23
2022-09-11T21:30:48.930Z,13.85
2022-09-11T21:33:15.793Z,15.30
2022-09-11T21:35:42.630Z,20.67
2022-09-11T21:38:09.565Z,20.13
2022-09-11T21:40:36.434Z,15.52
2022-09-11T21:43:03.235Z,16.85
2022-09-11T21:45:30.172Z,16.73
2022-09-11T21:47:56.895Z,16.95
2022-09-11T21:50:23.851Z,16.27
2022-09-11T21:52:50.979Z,16.65
2022-09-11T21:55:18.383Z,18.75
2022-09-11T21:57:45.457Z,18.75
2022-09-11T22:00:13.057Z,17.23
2022-09-11T22:02:40.315Z,20.23
2022-09-11T22:05:07.472Z,17.35
2022-09-11T22:07:34.457Z,17.50
2022-09-11T22:10:02.172Z,17.92
2022-09-11T22:12:29.068Z,21.00
2022-09-11T22:14:55.899Z,17.05
2022-09-11T22:17:23.126Z,20.33
2022-09-11T22:19:50.071Z,18.50
2022-09-11T22:22:17.042Z,17.48
2022-09-11T22:24:43.904Z,19.13
2022-09-11T22:27:11.267Z,17.05
2022-09-11T22:29:38.151Z,18.38
2022-09-11T22:32:05.883Z,18.38
2022-09-11T22:34:34.705Z,17.35
2022-09-11T22:37:02.542Z,19.48
2022-09-11T22:39:31.720Z,18.15
2022-09-11T22:41:59.764Z,18.15
2022-09-11T22:44:26.831Z,18.65
2022-09-11T22:46:53.860Z,17.42
2022-09-11T22:49:20.831Z,19.85
2022-09-11T22:51:47.851Z,20.90
2022-09-11T22:54:15.132Z,17.27
2022-09-11T22:56:42.390Z,18.58
2022-09-11T22:59:09.396Z,18.73
2022-09-11T23:01:36.898Z,19.55
2022-09-11T23:04:04.126Z,18.13
2022-09-11T23:06:49.568Z,22.45
2022-09-11T23:09:19.976Z,18.33
2022-09-11T23:11:47.202Z,18.80
2022-09-11T23:14:14.868Z,19.30
2022-09-11T23:16:42.381Z,21.55
2022-09-11T23:19:13.927Z,18.55
2022-09-11T23:21:41.512Z,18.20
2022-09-11T23:24:13.245Z,19.70
2022-09-11T23:26:40.421Z,21.67
2022-09-11T23:29:07.311Z,21.77
2022-09-11T23:31:34.881Z,20.67
2022-09-11T23:34:04.368Z,20.03
2022-09-11T23:36:32.058Z,22.58
2022-09-11T23:38:59.846Z,19.35
2022-09-11T23:41:27.508Z,19.25
2022-09-11T23:43:55.038Z,21.42
2022-09-11T23:46:21.913Z,21.33
2022-09-11T23:48:49.560Z,20.13
2022-09-11T23:51:17.355Z,22.85
2022-09-11T23:53:49.270Z,22.77
2022-09-11T23:56:16.273Z,23.02
2022-09-11T23:58:43.861Z,20.93
